sensor_id;sensor_type;location;lat;lon;timestamp;temperature;humidity
40153;DHT22;26371;56.992;23.912;2023-03-31T00:01:32;3.30;99.90
40153;DHT22;26371;56.992;23.912;2023-03-31T00:04:01;3.30;99.90
40153;DHT22;26371;56.992;23.912;2023-03-31T00:06:33;3.20;99.90
40153;DHT22;26371;56.992;23.912;2023-03-31T00:09:05;3.20;99.90
40153;DHT22;26371;56.992;23.912;2023-03-31T00:11:37;3.20;99.90
40153;DHT22;26371;56.992;23.912;2023-03-31T00:14:08;3.30;99.90
40153;DHT22;26371;56.992;23.912;2023-03-31T00:16:37;3.30;99.90
40153;DHT22;26371;56.992;23.912;2023-03-31T00:19:06;3.20;99.90
40153;DHT22;26371;56.992;23.912;2023-03-31T00:21:45;3.20;99.90
40153;DHT22;26371;56.992;23.912;2023-03-31T00:24:14;3.20;99.90
40153;DHT22;26371;56.992;23.912;2023-03-31T00:26:43;3.20;99.90
40153;DHT22;26371;56.992;23.912;2023-03-31T00:29:13;3.20;99.90
40153;DHT22;26371;56.992;23.912;2023-03-31T00:31:41;3.20;99.90
40153;DHT22;26371;56.992;23.912;2023-03-31T00:34:10;3.30;99.90
40153;DHT22;26371;56.992;23.912;2023-03-31T00:36:39;3.30;99.90
40153;DHT22;26371;56.992;23.912;2023-03-31T00:39:13;3.30;99.90
40153;DHT22;26371;56.992;23.912;2023-03-31T00:41:42;3.30;99.90
40153;DHT22;26371;56.992;23.912;2023-03-31T00:44:15;3.30;99.90
40153;DHT22;26371;56.992;23.912;2023-03-31T00:46:53;3.30;99.90
40153;DHT22;26371;56.992;23.912;2023-03-31T00:49:26;3.30;99.90
40153;DHT22;26371;56.992;23.912;2023-03-31T00:52:00;3.30;99.90
40153;DHT22;26371;56.992;23.912;2023-03-31T00:54:31;3.30;99.90
40153;DHT22;26371;56.992;23.912;2023-03-31T00:57:00;3.30;99.90
40153;DHT22;26371;56.992;23.912;2023-03-31T00:59:31;3.30;99.90
40153;DHT22;26371;56.992;23.912;2023-03-31T01:02:02;3.30;99.90
40153;DHT22;26371;56.992;23.912;2023-03-31T01:04:33;3.40;99.90
40153;DHT22;26371;56.992;23.912;2023-03-31T01:07:06;3.30;99.90
40153;DHT22;26371;56.992;23.912;2023-03-31T01:09:38;3.30;99.90
40153;DHT22;26371;56.992;23.912;2023-03-31T01:12:09;3.40;99.90
40153;DHT22;26371;56.992;23.912;2023-03-31T01:14:39;3.30;99.90
40153;DHT22;26371;56.992;23.912;2023-03-31T01:17:08;3.30;99.90
40153;DHT22;26371;56.992;23.912;2023-03-31T01:19:52;3.30;99.90
40153;DHT22;26371;56.992;23.912;2023-03-31T01:22:38;3.40;99.90
40153;DHT22;26371;56.992;23.912;2023-03-31T01:28:34;3.30;99.90
40153;DHT22;26371;56.992;23.912;2023-03-31T01:31:38;3.40;99.90
40153;DHT22;26371;56.992;23.912;2023-03-31T01:34:54;3.40;99.90
40153;DHT22;26371;56.992;23.912;2023-03-31T01:37:39;3.40;99.90
40153;DHT22;26371;56.992;23.912;2023-03-31T01:40:27;3.40;99.90
40153;DHT22;26371;56.992;23.912;2023-03-31T01:43:05;3.40;99.90
40153;DHT22;26371;56.992;23.912;2023-03-31T01:45:45;3.40;99.90
40153;DHT22;26371;56.992;23.912;2023-03-31T01:48:20;3.40;99.90
40153;DHT22;26371;56.992;23.912;2023-03-31T01:50:55;3.40;99.90
40153;DHT22;26371;56.992;23.912;2023-03-31T01:53:30;3.40;99.90
40153;DHT22;26371;56.992;23.912;2023-03-31T01:56:08;3.40;99.90
40153;DHT22;26371;56.992;23.912;2023-03-31T01:58:40;3.40;99.90
40153;DHT22;26371;56.992;23.912;2023-03-31T02:01:15;3.40;99.90
40153;DHT22;26371;56.992;23.912;2023-03-31T02:03:49;3.40;99.90
40153;DHT22;26371;56.992;23.912;2023-03-31T02:06:22;3.40;99.90
40153;DHT22;26371;56.992;23.912;2023-03-31T02:08:57;3.40;99.90
40153;DHT22;26371;56.992;23.912;2023-03-31T02:11:30;3.40;99.90
40153;DHT22;26371;56.992;23.912;2023-03-31T02:14:02;3.40;99.90
40153;DHT22;26371;56.992;23.912;2023-03-31T02:16:34;3.30;99.90
40153;DHT22;26371;56.992;23.912;2023-03-31T02:19:09;3.40;99.90
40153;DHT22;26371;56.992;23.912;2023-03-31T02:21:40;3.40;99.90
40153;DHT22;26371;56.992;23.912;2023-03-31T02:24:10;3.40;99.90
40153;DHT22;26371;56.992;23.912;2023-03-31T02:26:44;3.40;99.90
40153;DHT22;26371;56.992;23.912;2023-03-31T02:29:16;3.40;99.90
40153;DHT22;26371;56.992;23.912;2023-03-31T02:31:47;3.40;99.90
40153;DHT22;26371;56.992;23.912;2023-03-31T02:34:17;3.40;99.90
40153;DHT22;26371;56.992;23.912;2023-03-31T02:36:46;3.40;99.90
40153;DHT22;26371;56.992;23.912;2023-03-31T02:39:18;3.40;99.90
40153;DHT22;26371;56.992;23.912;2023-03-31T02:41:49;3.40;99.90
40153;DHT22;26371;56.992;23.912;2023-03-31T02:44:20;3.50;99.90
40153;DHT22;26371;56.992;23.912;2023-03-31T02:46:51;3.50;99.90
40153;DHT22;26371;56.992;23.912;2023-03-31T02:49:21;3.50;99.90
40153;DHT22;26371;56.992;23.912;2023-03-31T02:52:08;3.50;99.90
40153;DHT22;26371;56.992;23.912;2023-03-31T03:03:42;3.50;99.90
40153;DHT22;26371;56.992;23.912;2023-03-31T03:06:30;3.50;99.90
40153;DHT22;26371;56.992;23.912;2023-03-31T03:09:25;3.50;99.90
40153;DHT22;26371;56.992;23.912;2023-03-31T03:12:07;3.50;99.90
40153;DHT22;26371;56.992;23.912;2023-03-31T03:14:44;3.50;99.90
40153;DHT22;26371;56.992;23.912;2023-03-31T03:17:19;3.50;99.90
40153;DHT22;26371;56.992;23.912;2023-03-31T03:19:53;3.50;99.90
40153;DHT22;26371;56.992;23.912;2023-03-31T03:22:23;3.60;99.90
40153;DHT22;26371;56.992;23.912;2023-03-31T03:24:51;3.60;99.90
40153;DHT22;26371;56.992;23.912;2023-03-31T03:27:20;3.60;99.90
40153;DHT22;26371;56.992;23.912;2023-03-31T03:29:51;3.60;99.90
40153;DHT22;26371;56.992;23.912;2023-03-31T03:32:20;3.60;99.90
40153;DHT22;26371;56.992;23.912;2023-03-31T03:34:48;3.60;99.90
40153;DHT22;26371;56.992;23.912;2023-03-31T03:37:17;3.60;99.90
40153;DHT22;26371;56.992;23.912;2023-03-31T03:39:45;3.60;99.90
40153;DHT22;26371;56.992;23.912;2023-03-31T03:42:14;3.60;99.90
40153;DHT22;26371;56.992;23.912;2023-03-31T03:44:42;3.60;99.90
40153;DHT22;26371;56.992;23.912;2023-03-31T03:47:13;3.60;99.90
40153;DHT22;26371;56.992;23.912;2023-03-31T03:49:41;3.50;99.90
40153;DHT22;26371;56.992;23.912;2023-03-31T03:52:10;3.60;99.90
40153;DHT22;26371;56.992;23.912;2023-03-31T03:54:39;3.60;99.90
40153;DHT22;26371;56.992;23.912;2023-03-31T03:57:07;3.50;99.90
40153;DHT22;26371;56.992;23.912;2023-03-31T03:59:36;3.50;99.90
40153;DHT22;26371;56.992;23.912;2023-03-31T04:02:04;3.50;99.90
40153;DHT22;26371;56.992;23.912;2023-03-31T04:04:35;3.50;99.90
40153;DHT22;26371;56.992;23.912;2023-03-31T04:07:03;3.50;99.90
40153;DHT22;26371;56.992;23.912;2023-03-31T04:09:32;3.50;99.90
40153;DHT22;26371;56.992;23.912;2023-03-31T04:12:01;3.50;99.90
40153;DHT22;26371;56.992;23.912;2023-03-31T04:14:29;3.50;99.90
40153;DHT22;26371;56.992;23.912;2023-03-31T04:16:58;3.50;99.90
40153;DHT22;26371;56.992;23.912;2023-03-31T04:19:26;3.50;99.90
40153;DHT22;26371;56.992;23.912;2023-03-31T04:21:56;3.50;99.90
40153;DHT22;26371;56.992;23.912;2023-03-31T04:24:29;3.50;99.90
40153;DHT22;26371;56.992;23.912;2023-03-31T04:27:00;3.50;99.90
40153;DHT22;26371;56.992;23.912;2023-03-31T04:29:29;3.50;99.90
40153;DHT22;26371;56.992;23.912;2023-03-31T04:32:00;3.60;99.90
40153;DHT22;26371;56.992;23.912;2023-03-31T04:34:29;3.60;99.90
40153;DHT22;26371;56.992;23.912;2023-03-31T04:37:03;3.60;99.90
40153;DHT22;26371;56.992;23.912;2023-03-31T04:39:32;3.60;99.90
40153;DHT22;26371;56.992;23.912;2023-03-31T04:42:01;3.60;99.90
40153;DHT22;26371;56.992;23.912;2023-03-31T04:44:30;3.60;99.90
40153;DHT22;26371;56.992;23.912;2023-03-31T04:46:58;3.60;99.90
40153;DHT22;26371;56.992;23.912;2023-03-31T04:49:29;3.60;99.90
40153;DHT22;26371;56.992;23.912;2023-03-31T04:52:00;3.60;99.90
40153;DHT22;26371;56.992;23.912;2023-03-31T04:54:30;3.60;99.90
40153;DHT22;26371;56.992;23.912;2023-03-31T04:56:59;3.60;99.90
40153;DHT22;26371;56.992;23.912;2023-03-31T04:59:28;3.60;99.90
40153;DHT22;26371;56.992;23.912;2023-03-31T05:01:56;3.50;99.90
40153;DHT22;26371;56.992;23.912;2023-03-31T05:04:25;3.60;99.90
40153;DHT22;26371;56.992;23.912;2023-03-31T05:06:54;3.60;99.90
40153;DHT22;26371;56.992;23.912;2023-03-31T05:09:22;3.60;99.90
40153;DHT22;26371;56.992;23.912;2023-03-31T05:11:53;3.60;99.90
40153;DHT22;26371;56.992;23.912;2023-03-31T05:14:21;3.60;99.90
40153;DHT22;26371;56.992;23.912;2023-03-31T05:16:50;3.60;99.90
40153;DHT22;26371;56.992;23.912;2023-03-31T05:19:18;3.60;99.90
40153;DHT22;26371;56.992;23.912;2023-03-31T05:21:47;3.60;99.90
40153;DHT22;26371;56.992;23.912;2023-03-31T05:24:16;3.60;99.90
40153;DHT22;26371;56.992;23.912;2023-03-31T05:26:44;3.60;99.90
40153;DHT22;26371;56.992;23.912;2023-03-31T05:29:20;3.60;99.90
40153;DHT22;26371;56.992;23.912;2023-03-31T05:31:49;3.60;99.90
40153;DHT22;26371;56.992;23.912;2023-03-31T05:34:20;3.70;99.90
40153;DHT22;26371;56.992;23.912;2023-03-31T05:36:48;3.70;99.90
40153;DHT22;26371;56.992;23.912;2023-03-31T05:39:20;3.70;99.90
40153;DHT22;26371;56.992;23.912;2023-03-31T05:41:48;3.70;99.90
40153;DHT22;26371;56.992;23.912;2023-03-31T05:44:17;3.70;99.90
40153;DHT22;26371;56.992;23.912;2023-03-31T05:46:48;3.70;99.90
40153;DHT22;26371;56.992;23.912;2023-03-31T05:49:17;3.80;99.90
40153;DHT22;26371;56.992;23.912;2023-03-31T05:51:45;3.80;99.90
40153;DHT22;26371;56.992;23.912;2023-03-31T05:54:15;3.80;99.90
40153;DHT22;26371;56.992;23.912;2023-03-31T05:56:43;3.80;99.90
40153;DHT22;26371;56.992;23.912;2023-03-31T05:59:12;3.90;99.90
40153;DHT22;26371;56.992;23.912;2023-03-31T06:01:41;3.90;99.90
40153;DHT22;26371;56.992;23.912;2023-03-31T06:04:11;3.90;99.90
40153;DHT22;26371;56.992;23.912;2023-03-31T06:06:40;3.90;99.90
40153;DHT22;26371;56.992;23.912;2023-03-31T06:09:09;3.90;99.90
40153;DHT22;26371;56.992;23.912;2023-03-31T06:11:38;3.90;99.90
40153;DHT22;26371;56.992;23.912;2023-03-31T06:14:07;3.90;99.90
40153;DHT22;26371;56.992;23.912;2023-03-31T06:16:35;3.90;99.90
40153;DHT22;26371;56.992;23.912;2023-03-31T06:19:04;3.90;99.90
40153;DHT22;26371;56.992;23.912;2023-03-31T06:21:34;3.90;99.90
40153;DHT22;26371;56.992;23.912;2023-03-31T06:24:02;3.90;99.90
40153;DHT22;26371;56.992;23.912;2023-03-31T06:26:31;3.90;99.90
40153;DHT22;26371;56.992;23.912;2023-03-31T06:29:00;3.90;99.90
40153;DHT22;26371;56.992;23.912;2023-03-31T06:31:28;3.90;99.90
40153;DHT22;26371;56.992;23.912;2023-03-31T06:33:57;3.90;99.90
40153;DHT22;26371;56.992;23.912;2023-03-31T06:36:26;4.00;99.90
40153;DHT22;26371;56.992;23.912;2023-03-31T06:38:56;4.00;99.90
40153;DHT22;26371;56.992;23.912;2023-03-31T06:41:25;4.00;99.90
40153;DHT22;26371;56.992;23.912;2023-03-31T06:43:54;4.00;99.90
40153;DHT22;26371;56.992;23.912;2023-03-31T06:46:22;4.00;99.90
40153;DHT22;26371;56.992;23.912;2023-03-31T06:48:51;4.10;99.90
40153;DHT22;26371;56.992;23.912;2023-03-31T06:51:20;4.10;99.90
40153;DHT22;26371;56.992;23.912;2023-03-31T06:53:48;4.20;99.90
40153;DHT22;26371;56.992;23.912;2023-03-31T06:56:18;4.20;99.90
40153;DHT22;26371;56.992;23.912;2023-03-31T06:58:48;4.20;99.90
40153;DHT22;26371;56.992;23.912;2023-03-31T07:01:16;4.20;99.90
40153;DHT22;26371;56.992;23.912;2023-03-31T07:03:45;4.20;99.90
40153;DHT22;26371;56.992;23.912;2023-03-31T07:06:14;4.20;99.90
40153;DHT22;26371;56.992;23.912;2023-03-31T07:08:43;4.30;99.90
40153;DHT22;26371;56.992;23.912;2023-03-31T07:11:12;4.30;99.90
40153;DHT22;26371;56.992;23.912;2023-03-31T07:13:42;4.30;99.90
40153;DHT22;26371;56.992;23.912;2023-03-31T07:16:10;4.30;99.90
40153;DHT22;26371;56.992;23.912;2023-03-31T07:18:41;4.30;99.90
40153;DHT22;26371;56.992;23.912;2023-03-31T07:21:13;4.30;99.90
40153;DHT22;26371;56.992;23.912;2023-03-31T07:23:56;4.30;99.90
40153;DHT22;26371;56.992;23.912;2023-03-31T07:26:25;4.30;99.90
40153;DHT22;26371;56.992;23.912;2023-03-31T07:28:56;4.30;99.90
40153;DHT22;26371;56.992;23.912;2023-03-31T07:31:26;4.30;99.90
40153;DHT22;26371;56.992;23.912;2023-03-31T07:34:00;4.30;99.90
40153;DHT22;26371;56.992;23.912;2023-03-31T07:36:30;4.30;99.90
40153;DHT22;26371;56.992;23.912;2023-03-31T07:39:06;4.30;99.90
40153;DHT22;26371;56.992;23.912;2023-03-31T07:41:35;4.40;99.90
40153;DHT22;26371;56.992;23.912;2023-03-31T07:44:05;4.40;99.90
40153;DHT22;26371;56.992;23.912;2023-03-31T07:46:38;4.40;99.90
40153;DHT22;26371;56.992;23.912;2023-03-31T07:49:08;4.40;99.90
40153;DHT22;26371;56.992;23.912;2023-03-31T07:51:37;4.50;99.90
40153;DHT22;26371;56.992;23.912;2023-03-31T07:54:06;4.60;99.90
40153;DHT22;26371;56.992;23.912;2023-03-31T07:56:35;4.60;99.90
40153;DHT22;26371;56.992;23.912;2023-03-31T07:59:06;4.70;99.90
40153;DHT22;26371;56.992;23.912;2023-03-31T08:01:35;4.80;99.90
40153;DHT22;26371;56.992;23.912;2023-03-31T08:04:08;4.80;99.90
40153;DHT22;26371;56.992;23.912;2023-03-31T08:06:43;4.80;99.90
40153;DHT22;26371;56.992;23.912;2023-03-31T08:09:13;4.80;99.90
40153;DHT22;26371;56.992;23.912;2023-03-31T08:11:43;4.90;99.90
40153;DHT22;26371;56.992;23.912;2023-03-31T08:14:15;4.90;99.90
40153;DHT22;26371;56.992;23.912;2023-03-31T08:17:02;4.90;99.90
40153;DHT22;26371;56.992;23.912;2023-03-31T08:19:32;4.90;99.90
40153;DHT22;26371;56.992;23.912;2023-03-31T08:22:02;5.00;99.90
40153;DHT22;26371;56.992;23.912;2023-03-31T08:24:35;5.00;99.90
40153;DHT22;26371;56.992;23.912;2023-03-31T08:27:07;5.10;99.90
40153;DHT22;26371;56.992;23.912;2023-03-31T08:29:41;5.20;99.90
40153;DHT22;26371;56.992;23.912;2023-03-31T08:32:10;5.20;99.90
40153;DHT22;26371;56.992;23.912;2023-03-31T08:37:09;5.30;99.90
40153;DHT22;26371;56.992;23.912;2023-03-31T08:39:38;5.30;99.90
40153;DHT22;26371;56.992;23.912;2023-03-31T08:42:12;5.30;99.90
40153;DHT22;26371;56.992;23.912;2023-03-31T08:44:46;5.30;99.90
40153;DHT22;26371;56.992;23.912;2023-03-31T08:47:26;5.20;99.90
40153;DHT22;26371;56.992;23.912;2023-03-31T08:49:59;5.30;99.90
40153;DHT22;26371;56.992;23.912;2023-03-31T08:52:33;5.30;99.90
40153;DHT22;26371;56.992;23.912;2023-03-31T08:55:06;5.30;99.90
40153;DHT22;26371;56.992;23.912;2023-03-31T08:57:41;5.30;99.90
40153;DHT22;26371;56.992;23.912;2023-03-31T09:00:16;5.30;99.90
40153;DHT22;26371;56.992;23.912;2023-03-31T09:02:50;5.30;99.90
40153;DHT22;26371;56.992;23.912;2023-03-31T09:05:42;5.30;99.90
40153;DHT22;26371;56.992;23.912;2023-03-31T09:08:35;5.30;99.90
40153;DHT22;26371;56.992;23.912;2023-03-31T09:11:13;5.30;99.90
40153;DHT22;26371;56.992;23.912;2023-03-31T09:14:12;5.30;99.90
40153;DHT22;26371;56.992;23.912;2023-03-31T09:16:50;5.40;99.90
40153;DHT22;26371;56.992;23.912;2023-03-31T09:19:29;5.30;99.90
40153;DHT22;26371;56.992;23.912;2023-03-31T09:21:59;5.40;99.90
40153;DHT22;26371;56.992;23.912;2023-03-31T09:24:30;5.30;99.90
40153;DHT22;26371;56.992;23.912;2023-03-31T09:27:01;5.30;99.90
40153;DHT22;26371;56.992;23.912;2023-03-31T09:29:37;5.30;99.90
40153;DHT22;26371;56.992;23.912;2023-03-31T09:32:14;5.30;99.90
40153;DHT22;26371;56.992;23.912;2023-03-31T09:34:44;5.30;99.90
40153;DHT22;26371;56.992;23.912;2023-03-31T09:37:13;5.40;99.90
40153;DHT22;26371;56.992;23.912;2023-03-31T09:39:42;5.40;99.90
40153;DHT22;26371;56.992;23.912;2023-03-31T09:42:12;5.40;99.90
40153;DHT22;26371;56.992;23.912;2023-03-31T09:44:43;5.50;99.90
40153;DHT22;26371;56.992;23.912;2023-03-31T09:47:16;5.50;99.90
40153;DHT22;26371;56.992;23.912;2023-03-31T09:49:47;5.50;99.90
40153;DHT22;26371;56.992;23.912;2023-03-31T09:52:26;5.60;99.90
40153;DHT22;26371;56.992;23.912;2023-03-31T09:54:58;5.50;99.90
40153;DHT22;26371;56.992;23.912;2023-03-31T09:57:29;5.50;99.90
40153;DHT22;26371;56.992;23.912;2023-03-31T10:00:10;5.50;99.90
40153;DHT22;26371;56.992;23.912;2023-03-31T10:02:47;5.60;99.90
40153;DHT22;26371;56.992;23.912;2023-03-31T10:05:27;5.60;99.90
40153;DHT22;26371;56.992;23.912;2023-03-31T10:08:21;5.60;99.90
40153;DHT22;26371;56.992;23.912;2023-03-31T10:10:52;5.70;99.90
40153;DHT22;26371;56.992;23.912;2023-03-31T10:13:24;5.70;99.90
40153;DHT22;26371;56.992;23.912;2023-03-31T10:15:53;5.70;99.90
40153;DHT22;26371;56.992;23.912;2023-03-31T10:18:32;5.80;99.90
40153;DHT22;26371;56.992;23.912;2023-03-31T10:21:04;5.80;99.90
40153;DHT22;26371;56.992;23.912;2023-03-31T10:23:35;5.80;99.90
40153;DHT22;26371;56.992;23.912;2023-03-31T10:26:04;5.80;99.90
40153;DHT22;26371;56.992;23.912;2023-03-31T10:28:33;5.80;99.90
40153;DHT22;26371;56.992;23.912;2023-03-31T10:31:03;5.80;99.90
40153;DHT22;26371;56.992;23.912;2023-03-31T10:33:40;5.80;99.90
40153;DHT22;26371;56.992;23.912;2023-03-31T10:36:19;5.80;99.90
40153;DHT22;26371;56.992;23.912;2023-03-31T10:38:49;5.90;99.90
40153;DHT22;26371;56.992;23.912;2023-03-31T10:41:21;5.90;99.90
40153;DHT22;26371;56.992;23.912;2023-03-31T10:43:53;5.90;99.90
40153;DHT22;26371;56.992;23.912;2023-03-31T10:46:38;5.90;99.90
40153;DHT22;26371;56.992;23.912;2023-03-31T10:49:19;5.90;99.90
40153;DHT22;26371;56.992;23.912;2023-03-31T10:51:52;5.90;99.90
40153;DHT22;26371;56.992;23.912;2023-03-31T10:54:21;6.00;99.90
40153;DHT22;26371;56.992;23.912;2023-03-31T10:56:51;6.00;99.90
40153;DHT22;26371;56.992;23.912;2023-03-31T10:59:34;6.00;99.90
40153;DHT22;26371;56.992;23.912;2023-03-31T11:02:31;6.10;99.90
40153;DHT22;26371;56.992;23.912;2023-03-31T11:05:11;6.10;99.90
40153;DHT22;26371;56.992;23.912;2023-03-31T11:07:52;6.10;99.90
40153;DHT22;26371;56.992;23.912;2023-03-31T11:10:36;6.10;99.90
40153;DHT22;26371;56.992;23.912;2023-03-31T11:13:13;6.10;99.90
40153;DHT22;26371;56.992;23.912;2023-03-31T11:15:50;6.10;99.90
40153;DHT22;26371;56.992;23.912;2023-03-31T11:18:44;6.10;99.90
40153;DHT22;26371;56.992;23.912;2023-03-31T11:21:26;6.20;99.90
40153;DHT22;26371;56.992;23.912;2023-03-31T11:24:03;6.20;99.90
40153;DHT22;26371;56.992;23.912;2023-03-31T11:26:41;6.20;99.90
40153;DHT22;26371;56.992;23.912;2023-03-31T11:29:26;6.30;99.90
40153;DHT22;26371;56.992;23.912;2023-03-31T11:32:09;6.30;99.90
40153;DHT22;26371;56.992;23.912;2023-03-31T11:34:53;6.30;99.90
40153;DHT22;26371;56.992;23.912;2023-03-31T11:37:51;6.30;99.90
40153;DHT22;26371;56.992;23.912;2023-03-31T11:40:38;6.30;99.90
40153;DHT22;26371;56.992;23.912;2023-03-31T11:43:15;6.30;99.90
40153;DHT22;26371;56.992;23.912;2023-03-31T11:45:51;6.30;99.90
40153;DHT22;26371;56.992;23.912;2023-03-31T11:48:28;6.30;99.90
40153;DHT22;26371;56.992;23.912;2023-03-31T11:51:00;6.40;99.90
40153;DHT22;26371;56.992;23.912;2023-03-31T11:53:34;6.40;99.90
40153;DHT22;26371;56.992;23.912;2023-03-31T11:56:04;6.40;99.90
40153;DHT22;26371;56.992;23.912;2023-03-31T11:58:37;6.40;99.90
40153;DHT22;26371;56.992;23.912;2023-03-31T12:01:15;6.60;99.90
40153;DHT22;26371;56.992;23.912;2023-03-31T12:03:52;6.60;99.90
40153;DHT22;26371;56.992;23.912;2023-03-31T12:06:26;6.60;99.90
40153;DHT22;26371;56.992;23.912;2023-03-31T12:09:11;6.60;99.90
40153;DHT22;26371;56.992;23.912;2023-03-31T12:11:45;6.60;99.90
40153;DHT22;26371;56.992;23.912;2023-03-31T12:14:26;6.70;99.90
40153;DHT22;26371;56.992;23.912;2023-03-31T12:17:01;6.60;99.90
40153;DHT22;26371;56.992;23.912;2023-03-31T12:19:35;6.60;99.90
40153;DHT22;26371;56.992;23.912;2023-03-31T12:22:12;6.70;99.90
40153;DHT22;26371;56.992;23.912;2023-03-31T12:24:44;6.70;99.90
40153;DHT22;26371;56.992;23.912;2023-03-31T12:27:16;6.60;99.90
40153;DHT22;26371;56.992;23.912;2023-03-31T12:29:53;6.60;99.90
40153;DHT22;26371;56.992;23.912;2023-03-31T12:32:26;6.50;99.90
40153;DHT22;26371;56.992;23.912;2023-03-31T12:34:59;6.50;99.90
40153;DHT22;26371;56.992;23.912;2023-03-31T12:37:59;6.50;99.90
40153;DHT22;26371;56.992;23.912;2023-03-31T12:40:43;6.50;99.90
40153;DHT22;26371;56.992;23.912;2023-03-31T12:43:27;6.50;99.90
40153;DHT22;26371;56.992;23.912;2023-03-31T12:46:06;6.50;99.90
40153;DHT22;26371;56.992;23.912;2023-03-31T12:48:57;6.50;99.90
40153;DHT22;26371;56.992;23.912;2023-03-31T12:51:58;6.60;99.90
40153;DHT22;26371;56.992;23.912;2023-03-31T12:57:34;6.60;99.90
40153;DHT22;26371;56.992;23.912;2023-03-31T13:00:22;6.60;99.90
40153;DHT22;26371;56.992;23.912;2023-03-31T13:05:54;6.60;99.90
40153;DHT22;26371;56.992;23.912;2023-03-31T13:08:50;6.70;99.90
40153;DHT22;26371;56.992;23.912;2023-03-31T13:11:20;6.70;99.90
40153;DHT22;26371;56.992;23.912;2023-03-31T13:13:58;6.70;99.90
40153;DHT22;26371;56.992;23.912;2023-03-31T13:16:28;6.70;99.90
40153;DHT22;26371;56.992;23.912;2023-03-31T13:18:57;6.70;99.90
40153;DHT22;26371;56.992;23.912;2023-03-31T13:21:26;6.70;99.90
40153;DHT22;26371;56.992;23.912;2023-03-31T13:23:59;6.70;99.90
40153;DHT22;26371;56.992;23.912;2023-03-31T13:26:36;6.60;99.90
40153;DHT22;26371;56.992;23.912;2023-03-31T13:29:21;6.60;99.90
40153;DHT22;26371;56.992;23.912;2023-03-31T13:32:20;6.60;99.90
40153;DHT22;26371;56.992;23.912;2023-03-31T13:35:00;6.50;99.90
40153;DHT22;26371;56.992;23.912;2023-03-31T13:37:54;6.60;99.90
40153;DHT22;26371;56.992;23.912;2023-03-31T13:40:47;6.60;99.90
40153;DHT22;26371;56.992;23.912;2023-03-31T13:43:36;6.60;99.90
40153;DHT22;26371;56.992;23.912;2023-03-31T13:46:29;6.70;99.90
40153;DHT22;26371;56.992;23.912;2023-03-31T13:49:09;6.70;99.90
40153;DHT22;26371;56.992;23.912;2023-03-31T13:51:49;6.70;99.90
40153;DHT22;26371;56.992;23.912;2023-03-31T13:54:59;6.70;99.90
40153;DHT22;26371;56.992;23.912;2023-03-31T14:00:52;6.60;99.90
40153;DHT22;26371;56.992;23.912;2023-03-31T14:03:37;6.60;99.90
40153;DHT22;26371;56.992;23.912;2023-03-31T14:06:25;6.50;99.90
40153;DHT22;26371;56.992;23.912;2023-03-31T14:08:58;6.40;99.90
40153;DHT22;26371;56.992;23.912;2023-03-31T14:11:30;6.30;99.90
40153;DHT22;26371;56.992;23.912;2023-03-31T14:14:00;6.20;99.90
40153;DHT22;26371;56.992;23.912;2023-03-31T14:16:33;6.20;99.90
40153;DHT22;26371;56.992;23.912;2023-03-31T14:19:20;6.00;99.90
40153;DHT22;26371;56.992;23.912;2023-03-31T14:22:00;5.90;99.90
40153;DHT22;26371;56.992;23.912;2023-03-31T14:24:35;5.90;99.90
40153;DHT22;26371;56.992;23.912;2023-03-31T14:27:13;5.80;99.90
40153;DHT22;26371;56.992;23.912;2023-03-31T14:29:51;5.60;99.90
40153;DHT22;26371;56.992;23.912;2023-03-31T14:32:28;5.60;99.90
40153;DHT22;26371;56.992;23.912;2023-03-31T14:35:11;5.50;99.90
40153;DHT22;26371;56.992;23.912;2023-03-31T14:37:47;5.40;99.90
40153;DHT22;26371;56.992;23.912;2023-03-31T14:40:16;5.40;99.90
40153;DHT22;26371;56.992;23.912;2023-03-31T14:42:46;5.40;99.90
40153;DHT22;26371;56.992;23.912;2023-03-31T14:45:18;5.40;99.90
40153;DHT22;26371;56.992;23.912;2023-03-31T14:47:55;5.40;99.90
40153;DHT22;26371;56.992;23.912;2023-03-31T14:50:32;5.40;99.90
40153;DHT22;26371;56.992;23.912;2023-03-31T14:53:01;5.30;99.90
40153;DHT22;26371;56.992;23.912;2023-03-31T14:55:32;5.30;99.90
40153;DHT22;26371;56.992;23.912;2023-03-31T14:58:24;5.30;99.90
40153;DHT22;26371;56.992;23.912;2023-03-31T15:00:54;5.20;99.90
40153;DHT22;26371;56.992;23.912;2023-03-31T15:03:24;5.20;99.90
40153;DHT22;26371;56.992;23.912;2023-03-31T15:05:58;5.10;99.90
40153;DHT22;26371;56.992;23.912;2023-03-31T15:08:28;5.10;99.90
40153;DHT22;26371;56.992;23.912;2023-03-31T15:10:59;5.10;99.90
40153;DHT22;26371;56.992;23.912;2023-03-31T15:13:41;5.10;99.90
40153;DHT22;26371;56.992;23.912;2023-03-31T15:16:34;5.10;99.90
40153;DHT22;26371;56.992;23.912;2023-03-31T15:19:10;5.00;99.90
40153;DHT22;26371;56.992;23.912;2023-03-31T15:21:44;5.00;99.90
40153;DHT22;26371;56.992;23.912;2023-03-31T15:24:13;5.00;99.90
40153;DHT22;26371;56.992;23.912;2023-03-31T15:26:44;4.90;99.90
40153;DHT22;26371;56.992;23.912;2023-03-31T15:29:18;4.90;99.90
40153;DHT22;26371;56.992;23.912;2023-03-31T15:31:48;4.80;99.90
40153;DHT22;26371;56.992;23.912;2023-03-31T15:34:21;4.80;99.90
40153;DHT22;26371;56.992;23.912;2023-03-31T15:36:55;4.80;99.90
40153;DHT22;26371;56.992;23.912;2023-03-31T15:39:26;4.80;99.90
40153;DHT22;26371;56.992;23.912;2023-03-31T15:41:56;4.80;99.90
40153;DHT22;26371;56.992;23.912;2023-03-31T15:44:43;4.70;99.90
40153;DHT22;26371;56.992;23.912;2023-03-31T15:47:16;4.70;99.90
40153;DHT22;26371;56.992;23.912;2023-03-31T15:49:51;4.70;99.90
40153;DHT22;26371;56.992;23.912;2023-03-31T15:52:28;4.70;99.90
40153;DHT22;26371;56.992;23.912;2023-03-31T15:54:59;4.70;99.90
40153;DHT22;26371;56.992;23.912;2023-03-31T15:57:32;4.70;99.90
40153;DHT22;26371;56.992;23.912;2023-03-31T16:00:02;4.70;99.90
40153;DHT22;26371;56.992;23.912;2023-03-31T16:02:42;4.60;99.90
40153;DHT22;26371;56.992;23.912;2023-03-31T16:05:24;4.60;99.90
40153;DHT22;26371;56.992;23.912;2023-03-31T16:08:11;4.60;99.90
40153;DHT22;26371;56.992;23.912;2023-03-31T16:10:41;4.60;99.90
40153;DHT22;26371;56.992;23.912;2023-03-31T16:13:11;4.60;99.90
40153;DHT22;26371;56.992;23.912;2023-03-31T16:15:45;4.50;99.90
40153;DHT22;26371;56.992;23.912;2023-03-31T16:18:17;4.50;99.90
40153;DHT22;26371;56.992;23.912;2023-03-31T16:20:56;4.50;99.90
40153;DHT22;26371;56.992;23.912;2023-03-31T16:23:30;4.50;99.90
40153;DHT22;26371;56.992;23.912;2023-03-31T16:26:00;4.50;99.90
40153;DHT22;26371;56.992;23.912;2023-03-31T16:28:33;4.50;99.90
40153;DHT22;26371;56.992;23.912;2023-03-31T16:31:03;4.50;99.90
40153;DHT22;26371;56.992;23.912;2023-03-31T16:33:52;4.50;99.90
40153;DHT22;26371;56.992;23.912;2023-03-31T16:36:21;4.40;99.90
40153;DHT22;26371;56.992;23.912;2023-03-31T16:38:52;4.40;99.90